sensor_id;sensor_type;location;lat;lon;timestamp;P1;durP1;ratioP1;P2;durP2;ratioP2
55756;SDS011;41676;44.610;44.078;2023-03-23T00:03:03;22.67;;;11.65;;
55756;SDS011;41676;44.610;44.078;2023-03-23T00:08:03;30.63;;;11.68;;
55756;SDS011;41676;44.610;44.078;2023-03-23T00:13:04;30.42;;;12.98;;
55756;SDS011;41676;44.610;44.078;2023-03-23T00:18:05;26.13;;;11.85;;
55756;SDS011;41676;44.610;44.078;2023-03-23T00:23:06;29.83;;;12.52;;
55756;SDS011;41676;44.610;44.078;2023-03-23T00:28:07;23.13;;;11.77;;
55756;SDS011;41676;44.610;44.078;2023-03-23T00:33:08;26.73;;;12.35;;
55756;SDS011;41676;44.610;44.078;2023-03-23T00:38:12;22.77;;;13.13;;
55756;SDS011;41676;44.610;44.078;2023-03-23T00:43:14;25.50;;;13.63;;
55756;SDS011;41676;44.610;44.078;2023-03-23T00:48:16;25.42;;;13.13;;
55756;SDS011;41676;44.610;44.078;2023-03-23T00:53:17;29.67;;;12.98;;
55756;SDS011;41676;44.610;44.078;2023-03-23T00:58:18;32.95;;;13.35;;
55756;SDS011;41676;44.610;44.078;2023-03-23T01:03:19;33.22;;;14.20;;
55756;SDS011;41676;44.610;44.078;2023-03-23T01:08:20;33.67;;;14.40;;
55756;SDS011;41676;44.610;44.078;2023-03-23T01:13:22;39.90;;;14.57;;
55756;SDS011;41676;44.610;44.078;2023-03-23T01:18:23;32.83;;;14.95;;
55756;SDS011;41676;44.610;44.078;2023-03-23T01:23:24;35.72;;;15.73;;
55756;SDS011;41676;44.610;44.078;2023-03-23T01:28:24;28.90;;;13.93;;
55756;SDS011;41676;44.610;44.078;2023-03-23T01:33:25;29.33;;;12.63;;
55756;SDS011;41676;44.610;44.078;2023-03-23T01:38:26;31.40;;;13.02;;
55756;SDS011;41676;44.610;44.078;2023-03-23T01:43:27;27.40;;;13.02;;
55756;SDS011;41676;44.610;44.078;2023-03-23T01:48:29;30.88;;;15.55;;
55756;SDS011;41676;44.610;44.078;2023-03-23T01:53:40;35.95;;;16.15;;
55756;SDS011;41676;44.610;44.078;2023-03-23T01:58:44;61.40;;;30.52;;
55756;SDS011;41676;44.610;44.078;2023-03-23T02:03:47;34.67;;;14.35;;
55756;SDS011;41676;44.610;44.078;2023-03-23T02:08:51;27.10;;;12.55;;
55756;SDS011;41676;44.610;44.078;2023-03-23T02:13:52;29.38;;;12.13;;
55756;SDS011;41676;44.610;44.078;2023-03-23T02:18:57;30.52;;;13.18;;
55756;SDS011;41676;44.610;44.078;2023-03-23T02:35:18;101.10;;;47.45;;
55756;SDS011;41676;44.610;44.078;2023-03-23T02:40:24;36.83;;;17.60;;
55756;SDS011;41676;44.610;44.078;2023-03-23T02:45:30;26.13;;;13.88;;
55756;SDS011;41676;44.610;44.078;2023-03-23T02:50:33;26.02;;;11.88;;
55756;SDS011;41676;44.610;44.078;2023-03-23T02:55:37;32.72;;;11.90;;
55756;SDS011;41676;44.610;44.078;2023-03-23T03:00:43;35.25;;;13.15;;
55756;SDS011;41676;44.610;44.078;2023-03-23T03:05:47;26.80;;;12.30;;
55756;SDS011;41676;44.610;44.078;2023-03-23T03:11:12;22.83;;;11.00;;
55756;SDS011;41676;44.610;44.078;2023-03-23T03:21:46;28.95;;;11.25;;
55756;SDS011;41676;44.610;44.078;2023-03-23T03:26:50;30.05;;;10.43;;
55756;SDS011;41676;44.610;44.078;2023-03-23T03:31:58;28.48;;;14.25;;
55756;SDS011;41676;44.610;44.078;2023-03-23T03:42:05;22.67;;;11.23;;
55756;SDS011;41676;44.610;44.078;2023-03-23T03:47:10;22.27;;;10.27;;
55756;SDS011;41676;44.610;44.078;2023-03-23T03:52:11;26.10;;;11.32;;
55756;SDS011;41676;44.610;44.078;2023-03-23T03:57:12;27.38;;;10.35;;
55756;SDS011;41676;44.610;44.078;2023-03-23T04:02:13;23.55;;;10.43;;
55756;SDS011;41676;44.610;44.078;2023-03-23T04:07:16;22.10;;;11.10;;
55756;SDS011;41676;44.610;44.078;2023-03-23T04:12:17;31.70;;;11.88;;
55756;SDS011;41676;44.610;44.078;2023-03-23T04:17:18;24.58;;;11.48;;
55756;SDS011;41676;44.610;44.078;2023-03-23T04:22:20;29.40;;;11.90;;
55756;SDS011;41676;44.610;44.078;2023-03-23T04:27:25;25.80;;;11.65;;
55756;SDS011;41676;44.610;44.078;2023-03-23T04:32:28;22.67;;;10.95;;
55756;SDS011;41676;44.610;44.078;2023-03-23T04:37:30;21.73;;;10.13;;
55756;SDS011;41676;44.610;44.078;2023-03-23T04:42:31;22.00;;;11.63;;
55756;SDS011;41676;44.610;44.078;2023-03-23T04:47:33;25.77;;;12.63;;
55756;SDS011;41676;44.610;44.078;2023-03-23T04:52:39;28.50;;;13.45;;
55756;SDS011;41676;44.610;44.078;2023-03-23T04:57:45;23.85;;;12.85;;
55756;SDS011;41676;44.610;44.078;2023-03-23T05:02:49;22.35;;;12.48;;
55756;SDS011;41676;44.610;44.078;2023-03-23T05:07:51;20.30;;;12.32;;
55756;SDS011;41676;44.610;44.078;2023-03-23T05:12:52;24.17;;;14.52;;
55756;SDS011;41676;44.610;44.078;2023-03-23T05:17:54;33.63;;;18.05;;
55756;SDS011;41676;44.610;44.078;2023-03-23T05:22:55;24.63;;;12.60;;
55756;SDS011;41676;44.610;44.078;2023-03-23T05:27:57;29.95;;;11.98;;
55756;SDS011;41676;44.610;44.078;2023-03-23T05:32:59;20.58;;;12.90;;
55756;SDS011;41676;44.610;44.078;2023-03-23T05:38:00;23.67;;;12.30;;
55756;SDS011;41676;44.610;44.078;2023-03-23T05:43:02;19.90;;;12.85;;
55756;SDS011;41676;44.610;44.078;2023-03-23T05:48:02;21.38;;;12.93;;
55756;SDS011;41676;44.610;44.078;2023-03-23T05:53:03;25.90;;;12.60;;
55756;SDS011;41676;44.610;44.078;2023-03-23T05:58:04;28.33;;;12.57;;
55756;SDS011;41676;44.610;44.078;2023-03-23T06:03:05;18.38;;;11.88;;
55756;SDS011;41676;44.610;44.078;2023-03-23T06:08:05;20.42;;;12.23;;
55756;SDS011;41676;44.610;44.078;2023-03-23T06:13:07;21.80;;;11.75;;
55756;SDS011;41676;44.610;44.078;2023-03-23T06:18:08;21.33;;;11.52;;
55756;SDS011;41676;44.610;44.078;2023-03-23T06:23:09;17.38;;;10.75;;
55756;SDS011;41676;44.610;44.078;2023-03-23T06:28:10;18.60;;;11.60;;
55756;SDS011;41676;44.610;44.078;2023-03-23T06:33:11;18.55;;;10.48;;
55756;SDS011;41676;44.610;44.078;2023-03-23T06:38:11;16.08;;;10.40;;
55756;SDS011;41676;44.610;44.078;2023-03-23T06:43:13;19.27;;;10.23;;
55756;SDS011;41676;44.610;44.078;2023-03-23T06:48:14;20.15;;;11.18;;
55756;SDS011;41676;44.610;44.078;2023-03-23T06:53:15;26.27;;;10.43;;
55756;SDS011;41676;44.610;44.078;2023-03-23T06:58:16;16.63;;;9.48;;
55756;SDS011;41676;44.610;44.078;2023-03-23T07:03:17;18.13;;;9.48;;
55756;SDS011;41676;44.610;44.078;2023-03-23T07:08:18;15.98;;;10.15;;
55756;SDS011;41676;44.610;44.078;2023-03-23T07:13:19;19.27;;;8.65;;
55756;SDS011;41676;44.610;44.078;2023-03-23T07:18:20;18.00;;;8.52;;
55756;SDS011;41676;44.610;44.078;2023-03-23T07:23:21;18.42;;;8.20;;
55756;SDS011;41676;44.610;44.078;2023-03-23T07:28:22;24.58;;;7.55;;
55756;SDS011;41676;44.610;44.078;2023-03-23T07:33:23;16.58;;;7.70;;
55756;SDS011;41676;44.610;44.078;2023-03-23T07:38:24;23.38;;;8.13;;
55756;SDS011;41676;44.610;44.078;2023-03-23T07:43:27;15.70;;;7.23;;
55756;SDS011;41676;44.610;44.078;2023-03-23T07:48:28;20.23;;;7.93;;
55756;SDS011;41676;44.610;44.078;2023-03-23T07:53:29;23.88;;;6.30;;
55756;SDS011;41676;44.610;44.078;2023-03-23T07:58:30;24.58;;;5.95;;
55756;SDS011;41676;44.610;44.078;2023-03-23T08:03:31;19.50;;;6.00;;
55756;SDS011;41676;44.610;44.078;2023-03-23T08:08:32;17.60;;;5.60;;
55756;SDS011;41676;44.610;44.078;2023-03-23T08:13:33;21.67;;;5.22;;
55756;SDS011;41676;44.610;44.078;2023-03-23T08:18:36;19.75;;;5.22;;
55756;SDS011;41676;44.610;44.078;2023-03-23T08:23:37;24.38;;;5.15;;
55756;SDS011;41676;44.610;44.078;2023-03-23T08:28:39;27.45;;;4.72;;
55756;SDS011;41676;44.610;44.078;2023-03-23T08:33:39;22.35;;;4.70;;
55756;SDS011;41676;44.610;44.078;2023-03-23T08:38:41;21.75;;;5.20;;
55756;SDS011;41676;44.610;44.078;2023-03-23T08:43:43;17.60;;;4.90;;
55756;SDS011;41676;44.610;44.078;2023-03-23T08:48:45;18.50;;;5.35;;
55756;SDS011;41676;44.610;44.078;2023-03-23T08:53:46;25.25;;;5.00;;
55756;SDS011;41676;44.610;44.078;2023-03-23T08:58:47;17.40;;;5.35;;
55756;SDS011;41676;44.610;44.078;2023-03-23T09:03:49;26.02;;;5.85;;
55756;SDS011;41676;44.610;44.078;2023-03-23T09:08:50;18.05;;;6.22;;
55756;SDS011;41676;44.610;44.078;2023-03-23T09:13:51;18.15;;;5.68;;
55756;SDS011;41676;44.610;44.078;2023-03-23T09:18:52;23.33;;;4.75;;
55756;SDS011;41676;44.610;44.078;2023-03-23T09:23:53;23.85;;;5.00;;
55756;SDS011;41676;44.610;44.078;2023-03-23T09:28:57;22.00;;;5.35;;
55756;SDS011;41676;44.610;44.078;2023-03-23T09:33:58;21.45;;;4.43;;
55756;SDS011;41676;44.610;44.078;2023-03-23T09:39:01;16.50;;;4.90;;
55756;SDS011;41676;44.610;44.078;2023-03-23T09:49:08;14.13;;;4.55;;
55756;SDS011;41676;44.610;44.078;2023-03-23T09:59:41;17.80;;;4.07;;
55756;SDS011;41676;44.610;44.078;2023-03-23T10:04:48;18.25;;;4.65;;
55756;SDS011;41676;44.610;44.078;2023-03-23T10:09:51;15.93;;;4.53;;
55756;SDS011;41676;44.610;44.078;2023-03-23T10:25:29;26.63;;;4.68;;
55756;SDS011;41676;44.610;44.078;2023-03-23T10:30:37;18.35;;;4.88;;
55756;SDS011;41676;44.610;44.078;2023-03-23T10:35:54;13.10;;;4.22;;
55756;SDS011;41676;44.610;44.078;2023-03-23T10:41:02;15.82;;;4.60;;
55756;SDS011;41676;44.610;44.078;2023-03-23T10:51:32;10.80;;;4.93;;
55756;SDS011;41676;44.610;44.078;2023-03-23T10:56:41;12.80;;;3.60;;
55756;SDS011;41676;44.610;44.078;2023-03-23T11:01:45;10.90;;;4.03;;
55756;SDS011;41676;44.610;44.078;2023-03-23T11:06:51;12.35;;;4.70;;
55756;SDS011;41676;44.610;44.078;2023-03-23T11:11:55;14.60;;;4.40;;
55756;SDS011;41676;44.610;44.078;2023-03-23T11:16:57;18.95;;;4.00;;
55756;SDS011;41676;44.610;44.078;2023-03-23T11:27:07;15.98;;;4.40;;
55756;SDS011;41676;44.610;44.078;2023-03-23T11:32:10;21.63;;;5.40;;
55756;SDS011;41676;44.610;44.078;2023-03-23T11:37:19;12.07;;;4.65;;
55756;SDS011;41676;44.610;44.078;2023-03-23T11:47:35;12.48;;;3.70;;
55756;SDS011;41676;44.610;44.078;2023-03-23T11:57:46;14.38;;;3.67;;
55756;SDS011;41676;44.610;44.078;2023-03-23T12:08:55;12.68;;;4.18;;
55756;SDS011;41676;44.610;44.078;2023-03-23T12:14:33;16.42;;;4.57;;
55756;SDS011;41676;44.610;44.078;2023-03-23T12:20:20;16.65;;;4.47;;
55756;SDS011;41676;44.610;44.078;2023-03-23T12:36:12;20.83;;;4.32;;
55756;SDS011;41676;44.610;44.078;2023-03-23T12:41:26;25.33;;;4.53;;
55756;SDS011;41676;44.610;44.078;2023-03-23T12:52:37;15.88;;;3.97;;
55756;SDS011;41676;44.610;44.078;2023-03-23T12:57:35;19.73;;;4.30;;
55756;SDS011;41676;44.610;44.078;2023-03-23T13:02:43;20.15;;;4.25;;
55756;SDS011;41676;44.610;44.078;2023-03-23T13:08:03;20.27;;;4.15;;
55756;SDS011;41676;44.610;44.078;2023-03-23T13:13:13;21.98;;;4.45;;
55756;SDS011;41676;44.610;44.078;2023-03-23T13:23:34;10.68;;;3.80;;
55756;SDS011;41676;44.610;44.078;2023-03-23T13:34:30;16.50;;;4.93;;
55756;SDS011;41676;44.610;44.078;2023-03-23T13:39:34;17.90;;;4.25;;
55756;SDS011;41676;44.610;44.078;2023-03-23T13:45:18;32.38;;;4.60;;
55756;SDS011;41676;44.610;44.078;2023-03-23T14:00:43;16.67;;;4.20;;
55756;SDS011;41676;44.610;44.078;2023-03-23T14:11:00;16.40;;;3.97;;
55756;SDS011;41676;44.610;44.078;2023-03-23T14:16:23;27.35;;;8.10;;
55756;SDS011;41676;44.610;44.078;2023-03-23T14:26:41;17.58;;;5.03;;
55756;SDS011;41676;44.610;44.078;2023-03-23T14:31:43;19.25;;;4.90;;
55756;SDS011;41676;44.610;44.078;2023-03-23T14:36:45;24.65;;;4.28;;
55756;SDS011;41676;44.610;44.078;2023-03-23T14:41:46;20.13;;;3.92;;
55756;SDS011;41676;44.610;44.078;2023-03-23T14:46:47;25.33;;;5.30;;
55756;SDS011;41676;44.610;44.078;2023-03-23T14:51:50;20.13;;;6.95;;
55756;SDS011;41676;44.610;44.078;2023-03-23T14:56:53;43.45;;;18.88;;
55756;SDS011;41676;44.610;44.078;2023-03-23T15:01:54;42.17;;;20.42;;
55756;SDS011;41676;44.610;44.078;2023-03-23T15:06:56;50.95;;;17.30;;
55756;SDS011;41676;44.610;44.078;2023-03-23T15:12:02;53.33;;;17.23;;
55756;SDS011;41676;44.610;44.078;2023-03-23T15:17:05;75.30;;;17.35;;
55756;SDS011;41676;44.610;44.078;2023-03-23T15:27:31;88.13;;;19.42;;
55756;SDS011;41676;44.610;44.078;2023-03-23T15:32:40;90.75;;;25.08;;
55756;SDS011;41676;44.610;44.078;2023-03-23T15:37:43;75.13;;;29.38;;
55756;SDS011;41676;44.610;44.078;2023-03-23T15:42:46;59.42;;;23.58;;
55756;SDS011;41676;44.610;44.078;2023-03-23T15:47:48;63.13;;;29.98;;
55756;SDS011;41676;44.610;44.078;2023-03-23T15:52:49;66.10;;;37.78;;
55756;SDS011;41676;44.610;44.078;2023-03-23T15:57:52;70.80;;;33.60;;
55756;SDS011;41676;44.610;44.078;2023-03-23T16:03:01;67.93;;;28.85;;
55756;SDS011;41676;44.610;44.078;2023-03-23T16:08:07;60.40;;;30.98;;
55756;SDS011;41676;44.610;44.078;2023-03-23T16:13:10;54.13;;;29.50;;
55756;SDS011;41676;44.610;44.078;2023-03-23T16:18:18;70.60;;;37.08;;
55756;SDS011;41676;44.610;44.078;2023-03-23T16:23:21;74.57;;;42.25;;
55756;SDS011;41676;44.610;44.078;2023-03-23T16:28:21;91.53;;;54.58;;
55756;SDS011;41676;44.610;44.078;2023-03-23T16:33:22;87.00;;;46.53;;
55756;SDS011;41676;44.610;44.078;2023-03-23T16:38:23;64.25;;;34.22;;
55756;SDS011;41676;44.610;44.078;2023-03-23T16:43:24;49.28;;;23.92;;
55756;SDS011;41676;44.610;44.078;2023-03-23T16:48:25;33.70;;;16.17;;
55756;SDS011;41676;44.610;44.078;2023-03-23T16:53:26;26.70;;;9.80;;
55756;SDS011;41676;44.610;44.078;2023-03-23T16:58:27;27.17;;;8.25;;
55756;SDS011;41676;44.610;44.078;2023-03-23T17:03:27;24.13;;;7.50;;
55756;SDS011;41676;44.610;44.078;2023-03-23T17:08:28;25.48;;;6.32;;
55756;SDS011;41676;44.610;44.078;2023-03-23T17:13:30;16.10;;;5.70;;
55756;SDS011;41676;44.610;44.078;2023-03-23T17:18:30;22.15;;;5.28;;
55756;SDS011;41676;44.610;44.078;2023-03-23T17:23:31;24.90;;;5.25;;
55756;SDS011;41676;44.610;44.078;2023-03-23T17:28:32;16.35;;;4.55;;
55756;SDS011;41676;44.610;44.078;2023-03-23T17:33:33;23.95;;;4.35;;
55756;SDS011;41676;44.610;44.078;2023-03-23T17:38:34;17.60;;;4.85;;
55756;SDS011;41676;44.610;44.078;2023-03-23T17:43:35;12.32;;;3.22;;
55756;SDS011;41676;44.610;44.078;2023-03-23T17:48:38;26.77;;;4.90;;
55756;SDS011;41676;44.610;44.078;2023-03-23T17:53:39;24.70;;;4.72;;
55756;SDS011;41676;44.610;44.078;2023-03-23T17:58:40;16.10;;;4.15;;
55756;SDS011;41676;44.610;44.078;2023-03-23T18:03:41;15.55;;;3.90;;
55756;SDS011;41676;44.610;44.078;2023-03-23T18:08:41;20.67;;;4.60;;
55756;SDS011;41676;44.610;44.078;2023-03-23T18:13:42;17.33;;;4.50;;
55756;SDS011;41676;44.610;44.078;2023-03-23T18:18:43;17.20;;;4.35;;
55756;SDS011;41676;44.610;44.078;2023-03-23T18:23:45;18.40;;;4.63;;
55756;SDS011;41676;44.610;44.078;2023-03-23T18:28:46;19.20;;;5.30;;
55756;SDS011;41676;44.610;44.078;2023-03-23T18:33:49;21.58;;;4.97;;
55756;SDS011;41676;44.610;44.078;2023-03-23T18:38:54;24.80;;;5.13;;
55756;SDS011;41676;44.610;44.078;2023-03-23T18:43:56;30.50;;;4.28;;
55756;SDS011;41676;44.610;44.078;2023-03-23T18:48:56;17.33;;;4.47;;
55756;SDS011;41676;44.610;44.078;2023-03-23T18:53:57;20.60;;;5.35;;
55756;SDS011;41676;44.610;44.078;2023-03-23T18:58:58;26.77;;;5.63;;
55756;SDS011;41676;44.610;44.078;2023-03-23T19:03:58;18.45;;;5.07;;
55756;SDS011;41676;44.610;44.078;2023-03-23T19:08:59;16.90;;;4.25;;
55756;SDS011;41676;44.610;44.078;2023-03-23T19:14:00;28.10;;;5.55;;
55756;SDS011;41676;44.610;44.078;2023-03-23T19:19:01;21.40;;;5.13;;
55756;SDS011;41676;44.610;44.078;2023-03-23T19:24:06;17.25;;;5.10;;
55756;SDS011;41676;44.610;44.078;2023-03-23T19:29:10;20.75;;;6.38;;
55756;SDS011;41676;44.610;44.078;2023-03-23T19:34:13;24.08;;;6.10;;
55756;SDS011;41676;44.610;44.078;2023-03-23T19:39:15;29.73;;;8.10;;
55756;SDS011;41676;44.610;44.078;2023-03-23T19:44:15;27.90;;;7.28;;
55756;SDS011;41676;44.610;44.078;2023-03-23T19:49:16;21.70;;;7.32;;
55756;SDS011;41676;44.610;44.078;2023-03-23T19:54:17;30.20;;;8.20;;
55756;SDS011;41676;44.610;44.078;2023-03-23T19:59:18;22.80;;;8.32;;
55756;SDS011;41676;44.610;44.078;2023-03-23T20:04:19;22.67;;;8.23;;
55756;SDS011;41676;44.610;44.078;2023-03-23T20:09:20;27.48;;;9.02;;
55756;SDS011;41676;44.610;44.078;2023-03-23T20:14:21;29.73;;;9.18;;
55756;SDS011;41676;44.610;44.078;2023-03-23T20:19:22;30.23;;;7.60;;
55756;SDS011;41676;44.610;44.078;2023-03-23T20:24:22;17.67;;;6.63;;
55756;SDS011;41676;44.610;44.078;2023-03-23T20:29:23;24.55;;;6.18;;
55756;SDS011;41676;44.610;44.078;2023-03-23T20:34:24;25.77;;;5.80;;
55756;SDS011;41676;44.610;44.078;2023-03-23T20:39:31;22.83;;;6.43;;
55756;SDS011;41676;44.610;44.078;2023-03-23T20:44:32;33.40;;;7.70;;
55756;SDS011;41676;44.610;44.078;2023-03-23T20:49:35;15.85;;;5.85;;
55756;SDS011;41676;44.610;44.078;2023-03-23T20:54:37;30.48;;;6.93;;
55756;SDS011;41676;44.610;44.078;2023-03-23T20:59:39;20.40;;;6.88;;
55756;SDS011;41676;44.610;44.078;2023-03-23T21:04:40;24.45;;;6.90;;
55756;SDS011;41676;44.610;44.078;2023-03-23T21:09:41;30.63;;;6.43;;
55756;SDS011;41676;44.610;44.078;2023-03-23T21:14:42;25.38;;;6.80;;
55756;SDS011;41676;44.610;44.078;2023-03-23T21:19:44;26.20;;;7.88;;
55756;SDS011;41676;44.610;44.078;2023-03-23T21:24:44;29.08;;;10.07;;
55756;SDS011;41676;44.610;44.078;2023-03-23T21:29:45;24.25;;;8.32;;
55756;SDS011;41676;44.610;44.078;2023-03-23T21:34:46;40.58;;;10.45;;
55756;SDS011;41676;44.610;44.078;2023-03-23T21:39:47;27.50;;;8.40;;
55756;SDS011;41676;44.610;44.078;2023-03-23T21:44:47;27.77;;;9.63;;
55756;SDS011;41676;44.610;44.078;2023-03-23T21:49:48;43.88;;;21.10;;
55756;SDS011;41676;44.610;44.078;2023-03-23T21:54:51;32.97;;;13.70;;
55756;SDS011;41676;44.610;44.078;2023-03-23T21:59:52;38.40;;;12.10;;
55756;SDS011;41676;44.610;44.078;2023-03-23T22:04:54;37.58;;;12.32;;
55756;SDS011;41676;44.610;44.078;2023-03-23T22:09:55;27.58;;;11.80;;
55756;SDS011;41676;44.610;44.078;2023-03-23T22:14:56;38.08;;;11.07;;
55756;SDS011;41676;44.610;44.078;2023-03-23T22:19:57;31.40;;;11.15;;
55756;SDS011;41676;44.610;44.078;2023-03-23T22:24:58;30.00;;;9.50;;
55756;SDS011;41676;44.610;44.078;2023-03-23T22:29:58;30.27;;;9.50;;
55756;SDS011;41676;44.610;44.078;2023-03-23T22:34:59;44.28;;;16.40;;
55756;SDS011;41676;44.610;44.078;2023-03-23T22:40:00;39.53;;;13.45;;
55756;SDS011;41676;44.610;44.078;2023-03-23T22:45:01;50.00;;;13.30;;
55756;SDS011;41676;44.610;44.078;2023-03-23T22:50:06;54.25;;;14.80;;
55756;SDS011;41676;44.610;44.078;2023-03-23T22:55:08;41.05;;;13.45;;
55756;SDS011;41676;44.610;44.078;2023-03-23T23:00:09;36.72;;;12.85;;
55756;SDS011;41676;44.610;44.078;2023-03-23T23:10:14;25.20;;;8.55;;
55756;SDS011;41676;44.610;44.078;2023-03-23T23:15:15;27.88;;;8.80;;
55756;SDS011;41676;44.610;44.078;2023-03-23T23:20:16;27.67;;;9.18;;
55756;SDS011;41676;44.610;44.078;2023-03-23T23:25:18;33.00;;;8.95;;
55756;SDS011;41676;44.610;44.078;2023-03-23T23:30:19;28.92;;;8.75;;
55756;SDS011;41676;44.610;44.078;2023-03-23T23:35:20;30.75;;;9.23;;
55756;SDS011;41676;44.610;44.078;2023-03-23T23:40:21;21.88;;;8.75;;
55756;SDS011;41676;44.610;44.078;2023-03-23T23:45:22;20.83;;;7.38;;
55756;SDS011;41676;44.610;44.078;2023-03-23T23:50:23;17.70;;;7.63;;
55756;SDS011;41676;44.610;44.078;2023-03-23T23:55:24;27.52;;;7.88;;
